createdAt,value
2018-04-30T00:00:13.009Z,0.00
2018-04-30T00:01:13.244Z,0.00
2018-04-30T00:02:13.485Z,0.00
2018-04-30T00:03:13.724Z,0.00
2018-04-30T00:04:13.966Z,0.00
2018-04-30T00:05:14.211Z,0.00
2018-04-30T00:06:14.456Z,0.00
2018-04-30T00:07:14.690Z,0.00
2018-04-30T00:08:14.930Z,0.00
2018-04-30T00:09:15.167Z,0.00
2018-04-30T00:10:15.410Z,0.00
2018-04-30T00:11:15.643Z,0.00
2018-04-30T00:12:15.892Z,0.00
2018-04-30T00:13:16.120Z,0.00
2018-04-30T00:14:16.395Z,0.00
2018-04-30T00:15:16.626Z,0.00
2018-04-30T00:16:16.839Z,0.00
2018-04-30T00:17:17.076Z,0.00
2018-04-30T00:18:17.318Z,0.00
2018-04-30T00:19:17.545Z,0.00
2018-04-30T00:20:17.806Z,0.00
2018-04-30T00:21:18.039Z,0.00
2018-04-30T00:22:18.257Z,0.00
2018-04-30T00:23:18.491Z,0.00
2018-04-30T00:24:18.719Z,0.00
2018-04-30T00:25:18.955Z,0.00
2018-04-30T00:26:19.199Z,0.00
2018-04-30T00:27:19.435Z,0.00
2018-04-30T00:28:19.674Z,0.00
2018-04-30T00:29:19.940Z,0.00
2018-04-30T00:30:20.173Z,0.00
2018-04-30T00:31:20.400Z,0.00
2018-04-30T00:32:20.621Z,0.00
2018-04-30T00:33:20.853Z,0.00
2018-04-30T00:34:21.105Z,0.00
2018-04-30T00:35:21.351Z,0.00
2018-04-30T00:36:21.587Z,0.00
2018-04-30T00:37:21.819Z,0.00
2018-04-30T00:38:22.056Z,0.00
2018-04-30T00:39:22.312Z,0.00
2018-04-30T00:40:22.545Z,0.00
2018-04-30T00:41:22.753Z,0.00
2018-04-30T00:42:23.002Z,0.00
2018-04-30T00:43:23.250Z,0.00
2018-04-30T00:44:23.481Z,0.00
2018-04-30T00:45:23.711Z,0.00
2018-04-30T00:46:23.957Z,0.00
2018-04-30T00:47:24.193Z,0.00
2018-04-30T00:48:24.507Z,0.00
2018-04-30T00:49:24.675Z,0.00
2018-04-30T00:50:24.908Z,0.00
2018-04-30T00:51:25.150Z,0.00
2018-04-30T00:52:25.403Z,0.00
2018-04-30T00:53:25.634Z,0.00
2018-04-30T00:54:25.886Z,0.00
2018-04-30T00:55:26.111Z,0.00
2018-04-30T00:56:26.351Z,0.00
2018-04-30T00:57:26.582Z,0.00
2018-04-30T00:58:26.825Z,0.00
2018-04-30T00:59:27.067Z,0.00
2018-04-30T01:00:27.285Z,0.00
2018-04-30T01:01:27.528Z,0.00
2018-04-30T01:02:27.769Z,0.00
2018-04-30T01:03:28.032Z,0.00
2018-04-30T01:04:28.234Z,0.00
2018-04-30T01:05:28.487Z,0.00
2018-04-30T01:06:28.737Z,0.00
2018-04-30T01:07:28.985Z,0.00
2018-04-30T01:08:29.229Z,0.00
2018-04-30T01:09:29.452Z,0.00
2018-04-30T01:10:29.680Z,0.00
2018-04-30T01:11:29.921Z,0.00
2018-04-30T01:12:30.159Z,0.00
2018-04-30T01:13:30.414Z,0.00
2018-04-30T01:14:30.666Z,0.00
2018-04-30T01:15:30.870Z,0.00
2018-04-30T01:16:31.124Z,0.00
2018-04-30T01:17:31.382Z,0.00
2018-04-30T01:18:31.595Z,0.00
2018-04-30T01:19:31.863Z,0.00
2018-04-30T01:20:32.099Z,0.00
2018-04-30T01:21:32.351Z,0.00
2018-04-30T01:22:32.586Z,0.00
2018-04-30T01:23:32.824Z,0.00
2018-04-30T01:24:33.073Z,0.00
2018-04-30T01:25:33.287Z,0.00
2018-04-30T01:26:33.537Z,0.00
2018-04-30T01:27:33.785Z,0.00
2018-04-30T01:28:34.018Z,0.00
2018-04-30T01:29:34.246Z,0.00
2018-04-30T01:30:34.486Z,0.00
2018-04-30T01:31:34.744Z,0.00
2018-04-30T01:32:34.979Z,0.00
2018-04-30T01:33:35.215Z,0.00
2018-04-30T01:34:35.456Z,0.00
2018-04-30T01:35:35.696Z,0.00
2018-04-30T01:36:35.920Z,0.00
2018-04-30T01:37:36.182Z,0.00
2018-04-30T01:38:36.385Z,0.00
2018-04-30T01:39:36.629Z,0.00
2018-04-30T01:40:36.893Z,0.00
2018-04-30T01:41:37.134Z,0.00
2018-04-30T01:42:37.360Z,0.00
2018-04-30T01:43:37.597Z,0.00
2018-04-30T01:44:37.860Z,0.00
2018-04-30T01:45:38.080Z,0.00
2018-04-30T01:46:38.301Z,0.00
2018-04-30T01:47:38.540Z,0.00
2018-04-30T01:48:38.777Z,0.00
2018-04-30T01:49:39.015Z,0.00
2018-04-30T01:50:39.252Z,0.00
2018-04-30T01:51:39.531Z,0.00
2018-04-30T01:52:39.744Z,0.00
2018-04-30T01:53:39.985Z,0.00
2018-04-30T01:54:40.209Z,0.00
2018-04-30T01:55:40.441Z,0.00
2018-04-30T01:56:40.701Z,0.00
2018-04-30T01:57:40.934Z,0.00
2018-04-30T01:58:41.167Z,0.00
2018-04-30T01:59:41.417Z,0.00
2018-04-30T02:00:41.657Z,0.00
2018-04-30T02:01:41.902Z,0.00
2018-04-30T02:02:42.155Z,0.00
2018-04-30T02:03:42.378Z,0.00
2018-04-30T02:04:42.605Z,0.00
2018-04-30T02:05:42.841Z,0.00
2018-04-30T02:06:43.076Z,0.00
2018-04-30T02:07:43.315Z,0.00
2018-04-30T02:08:43.556Z,0.00
2018-04-30T02:09:43.791Z,0.00
2018-04-30T02:10:44.110Z,0.00
2018-04-30T02:11:44.308Z,0.00
2018-04-30T02:12:44.525Z,0.00
2018-04-30T02:13:44.769Z,0.00
2018-04-30T02:14:45.019Z,0.00
2018-04-30T02:15:45.249Z,0.00
2018-04-30T02:16:45.514Z,0.00
2018-04-30T02:17:45.757Z,0.00
2018-04-30T02:18:46.002Z,0.00
2018-04-30T02:19:46.244Z,0.00
2018-04-30T02:20:46.484Z,0.00
2018-04-30T02:21:46.730Z,0.00
2018-04-30T02:22:46.990Z,0.00
2018-04-30T02:23:47.211Z,0.00
2018-04-30T02:24:47.467Z,0.00
2018-04-30T02:25:47.704Z,0.00
2018-04-30T02:26:47.939Z,0.00
2018-04-30T02:27:48.167Z,0.00
2018-04-30T02:28:48.406Z,0.00
2018-04-30T02:29:48.624Z,0.00
2018-04-30T02:30:48.884Z,0.00
2018-04-30T02:31:49.139Z,0.00
2018-04-30T02:32:49.365Z,0.00
2018-04-30T02:33:49.614Z,0.00
2018-04-30T02:34:49.847Z,0.00
2018-04-30T02:35:50.095Z,0.00
2018-04-30T02:36:50.322Z,0.00
2018-04-30T02:37:50.570Z,0.00
2018-04-30T02:38:50.808Z,0.00
2018-04-30T02:39:51.071Z,0.00
2018-04-30T02:40:51.290Z,0.00
2018-04-30T02:41:51.516Z,0.00
2018-04-30T02:42:51.769Z,0.00
2018-04-30T02:43:52.015Z,0.00
2018-04-30T02:44:52.252Z,0.00
2018-04-30T02:45:52.500Z,0.00
2018-04-30T02:46:52.747Z,0.00
2018-04-30T02:47:52.974Z,0.00
2018-04-30T02:48:53.218Z,0.00
2018-04-30T02:49:53.473Z,0.00
2018-04-30T02:50:53.710Z,0.00
2018-04-30T02:51:53.928Z,0.00
2018-04-30T02:52:54.149Z,0.00
2018-04-30T02:53:54.423Z,0.00
2018-04-30T02:54:54.659Z,0.00
2018-04-30T02:55:54.918Z,0.00
2018-04-30T02:56:55.139Z,0.00
2018-04-30T02:57:55.366Z,0.00
2018-04-30T02:58:55.620Z,0.00
2018-04-30T02:59:55.876Z,0.00
2018-04-30T03:00:56.104Z,0.00
2018-04-30T03:01:56.362Z,0.00
2018-04-30T03:02:56.578Z,0.00
2018-04-30T03:03:56.822Z,0.00
2018-04-30T03:04:57.049Z,0.00
2018-04-30T03:05:57.278Z,0.00
2018-04-30T03:06:57.525Z,0.00
2018-04-30T03:07:57.798Z,0.00
2018-04-30T03:08:58.039Z,0.00
2018-04-30T03:09:58.264Z,0.00
2018-04-30T03:10:58.477Z,0.00
2018-04-30T03:11:58.729Z,0.00
2018-04-30T03:12:58.962Z,0.00
2018-04-30T03:13:59.201Z,0.00
2018-04-30T03:14:59.424Z,0.00
2018-04-30T03:15:59.668Z,0.00
2018-04-30T03:16:59.926Z,0.00
2018-04-30T03:18:00.159Z,0.00
2018-04-30T03:19:00.413Z,0.00
2018-04-30T03:20:00.671Z,0.00
2018-04-30T03:21:00.891Z,0.00
2018-04-30T03:22:01.151Z,0.00
2018-04-30T03:23:01.423Z,0.00
2018-04-30T03:24:01.639Z,0.00
2018-04-30T03:25:01.902Z,0.00
2018-04-30T03:26:02.121Z,0.00
2018-04-30T03:27:02.356Z,0.00
2018-04-30T03:28:02.592Z,0.00
2018-04-30T03:29:02.824Z,0.00
2018-04-30T03:30:03.066Z,0.00
2018-04-30T03:31:03.321Z,0.00
2018-04-30T03:32:03.557Z,0.00
2018-04-30T03:33:03.782Z,0.00
2018-04-30T03:34:04.024Z,0.00
2018-04-30T03:35:04.254Z,0.00
2018-04-30T03:36:04.500Z,0.00
2018-04-30T03:37:04.716Z,0.00
2018-04-30T03:38:04.964Z,0.00
2018-04-30T03:39:05.203Z,0.00
2018-04-30T03:40:05.469Z,0.00
2018-04-30T03:41:05.684Z,0.00
2018-04-30T03:42:05.948Z,0.00
2018-04-30T03:43:06.669Z,0.00
2018-04-30T03:44:06.453Z,0.00
2018-04-30T03:45:06.700Z,0.00
2018-04-30T03:46:06.923Z,0.00
2018-04-30T03:47:07.176Z,0.00
2018-04-30T03:48:07.412Z,0.00
2018-04-30T03:49:07.656Z,0.00
2018-04-30T03:50:07.885Z,5.63
2018-04-30T03:51:08.114Z,5.63
2018-04-30T03:52:08.364Z,5.63
2018-04-30T03:53:08.589Z,5.63
2018-04-30T03:54:08.821Z,5.63
2018-04-30T03:55:09.061Z,5.63
2018-04-30T03:56:09.301Z,11.25
2018-04-30T03:57:09.533Z,11.25
2018-04-30T03:58:09.786Z,11.25
2018-04-30T03:59:10.032Z,16.88
2018-04-30T04:00:10.266Z,16.88
2018-04-30T04:01:10.542Z,16.88
2018-04-30T04:02:10.768Z,16.88
2018-04-30T04:03:11.022Z,22.50
2018-04-30T04:04:11.283Z,22.50
2018-04-30T04:05:11.478Z,22.50
2018-04-30T04:06:11.718Z,22.50
2018-04-30T04:07:11.956Z,28.13
2018-04-30T04:08:12.201Z,28.13
2018-04-30T04:09:12.439Z,33.75
2018-04-30T04:10:12.680Z,33.75
2018-04-30T04:11:12.920Z,33.75
2018-04-30T04:12:13.162Z,33.75
2018-04-30T04:13:13.386Z,39.38
2018-04-30T04:14:13.631Z,39.38
2018-04-30T04:15:13.875Z,39.38
2018-04-30T04:16:14.112Z,45.00
2018-04-30T04:17:14.361Z,45.00
2018-04-30T04:18:14.600Z,45.00
2018-04-30T04:19:14.823Z,50.63
2018-04-30T04:20:15.074Z,50.63
2018-04-30T04:21:15.304Z,50.63
2018-04-30T04:22:15.560Z,50.63
2018-04-30T04:23:15.777Z,50.63
2018-04-30T04:24:16.031Z,56.25
2018-04-30T04:25:16.256Z,56.25
2018-04-30T04:26:16.504Z,56.25
2018-04-30T04:27:16.744Z,56.25
2018-04-30T04:28:16.985Z,56.25
2018-04-30T04:29:17.216Z,56.25
2018-04-30T04:30:17.473Z,61.88
2018-04-30T04:31:17.699Z,61.88
2018-04-30T04:32:17.938Z,61.88
2018-04-30T04:33:18.178Z,61.88
2018-04-30T04:34:18.415Z,67.50
2018-04-30T04:35:18.658Z,67.50
2018-04-30T04:36:18.900Z,61.88
2018-04-30T04:37:19.174Z,56.25
2018-04-30T04:38:19.387Z,50.63
2018-04-30T04:39:19.639Z,50.63
2018-04-30T04:40:19.857Z,45.00
2018-04-30T04:41:20.127Z,39.38
2018-04-30T04:42:20.344Z,45.00
2018-04-30T04:43:20.588Z,50.63
2018-04-30T04:44:20.825Z,50.63
2018-04-30T04:45:21.044Z,50.63
2018-04-30T04:46:21.293Z,50.63
2018-04-30T04:47:21.581Z,45.00
2018-04-30T04:48:21.754Z,56.25
2018-04-30T04:49:21.996Z,61.88
2018-04-30T04:50:22.272Z,61.88
2018-04-30T04:51:22.516Z,61.88
2018-04-30T04:52:22.764Z,67.50
2018-04-30T04:53:22.972Z,73.13
2018-04-30T04:54:23.209Z,78.75
2018-04-30T04:55:23.486Z,78.75
2018-04-30T04:56:23.667Z,84.38
2018-04-30T04:57:23.897Z,84.38
2018-04-30T04:58:24.157Z,90.00
2018-04-30T04:59:24.413Z,95.63
2018-04-30T05:00:24.646Z,106.88
2018-04-30T05:01:24.888Z,101.25
2018-04-30T05:02:25.205Z,106.88
2018-04-30T05:03:25.365Z,106.88
2018-04-30T05:04:25.607Z,106.88
2018-04-30T05:05:25.840Z,106.88
2018-04-30T05:06:26.072Z,101.25
2018-04-30T05:07:26.312Z,95.63
2018-04-30T05:08:26.551Z,84.38
2018-04-30T05:09:26.818Z,78.75
2018-04-30T05:10:27.082Z,73.13
2018-04-30T05:11:27.489Z,73.13
2018-04-30T05:12:27.763Z,73.13
2018-04-30T05:13:28.009Z,78.75
2018-04-30T05:14:28.240Z,78.75
2018-04-30T05:15:28.523Z,78.75
2018-04-30T05:16:28.732Z,67.50
2018-04-30T05:17:29.025Z,61.88
2018-04-30T05:18:29.255Z,56.25
2018-04-30T05:19:29.482Z,50.63
2018-04-30T05:20:39.006Z,50.63
2018-04-30T05:21:30.958Z,50.63
2018-04-30T05:22:31.152Z,45.00
2018-04-30T05:23:30.662Z,39.38
2018-04-30T05:24:30.901Z,39.38
2018-04-30T05:25:31.134Z,39.38
2018-04-30T05:26:31.409Z,39.38
2018-04-30T05:27:31.628Z,39.38
2018-04-30T05:28:31.858Z,39.38
2018-04-30T05:29:32.105Z,39.38
2018-04-30T05:30:32.335Z,39.38
2018-04-30T05:31:32.594Z,39.38
2018-04-30T05:32:32.831Z,39.38
2018-04-30T05:33:33.246Z,39.38
2018-04-30T05:34:33.560Z,39.38
2018-04-30T05:35:33.894Z,39.38
2018-04-30T05:36:34.153Z,39.38
2018-04-30T05:37:34.487Z,39.38
2018-04-30T05:38:34.882Z,45.00
2018-04-30T05:39:35.267Z,45.00
2018-04-30T05:40:35.613Z,45.00
2018-04-30T05:41:35.919Z,50.63
2018-04-30T05:42:36.156Z,50.63
2018-04-30T05:43:36.416Z,45.00
2018-04-30T05:44:36.674Z,45.00
2018-04-30T05:45:36.915Z,39.38
2018-04-30T05:46:37.192Z,39.38
2018-04-30T05:47:37.442Z,33.75
2018-04-30T05:48:37.865Z,33.75
2018-04-30T05:49:38.123Z,33.75
2018-04-30T05:50:38.411Z,33.75
2018-04-30T05:51:38.676Z,28.13
2018-04-30T05:52:38.923Z,28.13
2018-04-30T05:53:39.158Z,28.13
2018-04-30T05:54:39.399Z,28.13
2018-04-30T05:55:39.621Z,28.13
2018-04-30T05:56:39.864Z,28.13
2018-04-30T05:57:40.108Z,28.13
2018-04-30T05:58:40.371Z,28.13
2018-04-30T05:59:40.670Z,28.13
2018-04-30T06:00:40.904Z,28.13
2018-04-30T06:01:41.145Z,28.13
2018-04-30T06:02:41.406Z,28.13
2018-04-30T06:03:41.616Z,28.13
2018-04-30T06:04:41.872Z,28.13
2018-04-30T06:05:42.113Z,28.13
2018-04-30T06:06:42.469Z,28.13
2018-04-30T06:07:42.668Z,28.13
2018-04-30T06:08:42.890Z,33.75
2018-04-30T06:09:43.125Z,33.75
2018-04-30T06:10:43.376Z,33.75
2018-04-30T06:11:43.662Z,39.38
2018-04-30T06:12:43.910Z,45.00
2018-04-30T06:13:44.147Z,56.25
2018-04-30T06:14:44.446Z,73.13
2018-04-30T06:15:44.739Z,84.38
2018-04-30T06:16:44.968Z,95.63
2018-04-30T06:17:45.199Z,101.25
2018-04-30T06:18:45.444Z,118.13
2018-04-30T06:19:45.684Z,123.75
2018-04-30T06:20:45.922Z,129.38
2018-04-30T06:21:46.162Z,140.63
2018-04-30T06:22:46.382Z,174.38
2018-04-30T06:23:46.631Z,191.25
2018-04-30T06:24:46.871Z,225.00
2018-04-30T06:25:47.103Z,219.38
2018-04-30T06:26:47.488Z,213.75
2018-04-30T06:27:47.611Z,225.00
2018-04-30T06:28:47.863Z,253.13
2018-04-30T06:29:48.112Z,286.88
2018-04-30T06:30:48.393Z,315.00
2018-04-30T06:31:48.624Z,337.50
2018-04-30T06:32:48.862Z,354.38
2018-04-30T06:33:49.105Z,388.13
2018-04-30T06:34:49.465Z,427.50
2018-04-30T06:35:49.652Z,450.00
2018-04-30T06:36:49.852Z,472.50
2018-04-30T06:37:58.038Z,478.13
2018-04-30T06:38:50.532Z,478.13
2018-04-30T06:39:50.626Z,478.13
2018-04-30T06:40:50.861Z,472.50
2018-04-30T06:41:51.100Z,472.50
2018-04-30T06:42:51.333Z,455.63
2018-04-30T06:43:51.614Z,438.75
2018-04-30T06:44:51.850Z,416.25
2018-04-30T06:45:52.090Z,410.63
2018-04-30T06:46:52.335Z,416.25
2018-04-30T06:47:52.569Z,421.88
2018-04-30T06:48:52.825Z,421.88
2018-04-30T06:49:53.068Z,427.50
2018-04-30T06:50:53.294Z,421.88
2018-04-30T06:51:53.553Z,450.00
2018-04-30T06:52:53.798Z,461.25
2018-04-30T06:53:54.045Z,455.63
2018-04-30T06:54:54.302Z,450.00
2018-04-30T06:55:54.533Z,450.00
2018-04-30T06:56:54.777Z,455.63
2018-04-30T06:57:55.017Z,444.38
2018-04-30T06:58:55.263Z,444.38
2018-04-30T06:59:55.515Z,438.75
2018-04-30T07:00:55.837Z,444.38
2018-04-30T07:01:56.032Z,455.63
2018-04-30T07:02:56.345Z,472.50
2018-04-30T07:03:56.566Z,495.00
2018-04-30T07:04:56.829Z,663.75
2018-04-30T07:05:57.178Z,540.00
2018-04-30T07:06:57.303Z,523.13
2018-04-30T07:07:57.580Z,641.25
2018-04-30T07:08:57.877Z,500.63
2018-04-30T07:09:58.134Z,461.25
2018-04-30T07:10:58.372Z,517.50
2018-04-30T07:11:58.679Z,675.00
2018-04-30T07:12:58.889Z,438.75
2018-04-30T07:13:59.135Z,466.88
2018-04-30T07:14:59.370Z,410.63
2018-04-30T07:15:59.642Z,405.00
2018-04-30T07:16:59.900Z,382.50
2018-04-30T07:18:00.152Z,376.88
2018-04-30T07:19:00.473Z,337.50
2018-04-30T07:20:00.773Z,331.88
2018-04-30T07:21:00.928Z,331.88
2018-04-30T07:22:01.162Z,315.00
2018-04-30T07:23:01.408Z,309.38
2018-04-30T07:24:01.648Z,298.13
2018-04-30T07:25:01.945Z,292.50
2018-04-30T07:26:02.169Z,286.88
2018-04-30T07:27:02.427Z,298.13
2018-04-30T07:28:02.679Z,292.50
2018-04-30T07:29:02.956Z,275.63
2018-04-30T07:30:03.207Z,258.75
2018-04-30T07:31:03.439Z,241.88
2018-04-30T07:32:03.685Z,230.63
2018-04-30T07:33:03.953Z,213.75
2018-04-30T07:34:04.165Z,191.25
2018-04-30T07:35:04.419Z,174.38
2018-04-30T07:36:04.740Z,168.75
2018-04-30T07:37:04.956Z,157.50
2018-04-30T07:38:05.182Z,151.88
2018-04-30T07:39:05.476Z,157.50
2018-04-30T07:40:05.653Z,151.88
2018-04-30T07:41:05.914Z,151.88
2018-04-30T07:42:06.145Z,151.88
2018-04-30T07:43:06.396Z,157.50
2018-04-30T07:44:06.646Z,146.25
2018-04-30T07:45:06.873Z,146.25
2018-04-30T07:46:07.117Z,157.50
2018-04-30T07:47:07.364Z,174.38
2018-04-30T07:48:07.597Z,180.00
2018-04-30T07:49:07.945Z,180.00
2018-04-30T07:50:08.123Z,168.75
2018-04-30T07:51:08.362Z,146.25
2018-04-30T07:52:08.606Z,146.25
2018-04-30T07:53:09.847Z,151.88
2018-04-30T07:54:09.183Z,163.13
2018-04-30T07:55:09.415Z,180.00
2018-04-30T07:56:09.647Z,168.75
2018-04-30T07:57:09.879Z,168.75
2018-04-30T07:58:10.146Z,174.38
2018-04-30T07:59:10.412Z,168.75
2018-04-30T08:00:10.653Z,163.13
2018-04-30T08:01:10.897Z,185.63
2018-04-30T08:02:11.137Z,213.75
2018-04-30T08:03:11.426Z,236.25
2018-04-30T08:04:11.606Z,247.50
2018-04-30T08:05:11.841Z,253.13
2018-04-30T08:06:12.216Z,236.25
2018-04-30T08:07:12.439Z,225.00
2018-04-30T08:08:12.696Z,213.75
2018-04-30T08:09:13.070Z,208.13
2018-04-30T08:10:13.257Z,202.50
2018-04-30T08:11:13.518Z,202.50
2018-04-30T08:12:13.750Z,191.25
2018-04-30T08:13:14.035Z,191.25
2018-04-30T08:14:14.246Z,196.88
2018-04-30T08:15:14.476Z,191.25
2018-04-30T08:16:14.732Z,191.25
2018-04-30T08:17:14.992Z,191.25
2018-04-30T08:18:15.357Z,196.88
2018-04-30T08:19:15.562Z,208.13
2018-04-30T08:20:15.786Z,213.75
2018-04-30T08:21:16.023Z,208.13
2018-04-30T08:22:16.317Z,202.50
2018-04-30T08:23:16.709Z,196.88
2018-04-30T08:24:16.967Z,191.25
2018-04-30T08:25:17.322Z,185.63
2018-04-30T08:26:17.569Z,180.00
2018-04-30T08:27:17.800Z,180.00
2018-04-30T08:28:18.077Z,180.00
2018-04-30T08:29:18.299Z,174.38
2018-04-30T08:30:18.538Z,180.00
2018-04-30T08:31:18.769Z,191.25
2018-04-30T08:32:19.024Z,196.88
2018-04-30T08:33:19.281Z,196.88
2018-04-30T08:34:19.526Z,191.25
2018-04-30T08:35:19.772Z,168.75
2018-04-30T08:36:20.003Z,174.38
2018-04-30T08:37:20.258Z,185.63
2018-04-30T08:38:20.508Z,168.75
2018-04-30T08:39:20.742Z,180.00
2018-04-30T08:40:21.033Z,191.25
2018-04-30T08:41:21.265Z,213.75
2018-04-30T08:42:21.529Z,225.00
2018-04-30T08:43:21.760Z,258.75
2018-04-30T08:44:22.009Z,275.63
2018-04-30T08:45:22.248Z,298.13
2018-04-30T08:46:22.479Z,303.75
2018-04-30T08:47:22.721Z,315.00
2018-04-30T08:48:23.017Z,315.00
2018-04-30T08:49:23.245Z,303.75
2018-04-30T08:50:23.508Z,286.88
2018-04-30T08:51:23.812Z,270.00
2018-04-30T08:52:24.061Z,281.25
2018-04-30T08:53:24.338Z,303.75
2018-04-30T08:54:24.639Z,292.50
2018-04-30T08:55:24.899Z,303.75
2018-04-30T08:56:25.179Z,320.63
2018-04-30T08:57:25.432Z,326.25
2018-04-30T08:58:25.707Z,331.88
2018-04-30T08:59:25.933Z,376.88
2018-04-30T09:00:26.231Z,416.25
2018-04-30T09:01:26.405Z,455.63
2018-04-30T09:02:26.729Z,472.50
2018-04-30T09:03:26.932Z,472.50
2018-04-30T09:04:27.251Z,461.25
2018-04-30T09:05:27.505Z,450.00
2018-04-30T09:06:27.735Z,444.38
2018-04-30T09:07:28.040Z,444.38
2018-04-30T09:08:28.278Z,450.00
2018-04-30T09:09:28.538Z,450.00
2018-04-30T09:10:28.775Z,450.00
2018-04-30T09:11:29.018Z,416.25
2018-04-30T09:12:29.235Z,382.50
2018-04-30T09:13:29.462Z,376.88
2018-04-30T09:14:29.693Z,393.75
2018-04-30T09:15:29.968Z,405.00
2018-04-30T09:16:30.231Z,450.00
2018-04-30T09:17:30.512Z,478.13
2018-04-30T09:18:30.752Z,444.38
2018-04-30T09:19:31.014Z,371.25
2018-04-30T09:20:31.299Z,326.25
2018-04-30T09:21:31.517Z,371.25
2018-04-30T09:22:31.791Z,416.25
2018-04-30T09:23:32.034Z,410.63
2018-04-30T09:24:32.260Z,427.50
2018-04-30T09:25:32.541Z,489.38
2018-04-30T09:26:32.789Z,568.13
2018-04-30T09:27:33.107Z,675.00
2018-04-30T09:28:33.315Z,781.88
2018-04-30T09:29:33.553Z,855.00
2018-04-30T09:30:33.793Z,928.13
2018-04-30T09:31:34.128Z,1001.25
2018-04-30T09:32:34.410Z,1057.50
2018-04-30T09:33:34.657Z,1046.25
2018-04-30T09:34:34.892Z,1310.63
2018-04-30T09:35:35.207Z,1293.75
2018-04-30T09:36:35.456Z,1676.25
2018-04-30T09:37:35.743Z,1080.00
2018-04-30T09:38:35.957Z,1220.63
2018-04-30T09:39:36.180Z,916.88
2018-04-30T09:40:36.480Z,714.38
2018-04-30T09:41:36.723Z,573.75
2018-04-30T09:42:36.996Z,511.88
2018-04-30T09:43:37.275Z,433.13
2018-04-30T09:44:37.531Z,444.38
2018-04-30T09:45:37.773Z,534.38
2018-04-30T09:46:38.049Z,556.88
2018-04-30T09:47:38.370Z,495.00
2018-04-30T09:48:38.634Z,489.38
2018-04-30T09:49:38.900Z,618.75
2018-04-30T09:50:39.196Z,691.88
2018-04-30T09:51:39.518Z,945.00
2018-04-30T09:52:39.765Z,1372.50
2018-04-30T09:53:40.006Z,2469.38
2018-04-30T09:54:40.254Z,2340.00
2018-04-30T09:55:40.549Z,3211.88
2018-04-30T09:56:40.791Z,2210.63
2018-04-30T09:57:41.080Z,1456.88
2018-04-30T09:58:41.305Z,3341.25
2018-04-30T09:59:41.556Z,3150.00
2018-04-30T10:00:41.795Z,810.00
2018-04-30T10:01:42.063Z,635.63
2018-04-30T10:02:42.301Z,618.75
2018-04-30T10:03:42.610Z,545.63
2018-04-30T10:04:42.887Z,551.25
2018-04-30T10:05:43.085Z,601.88
2018-04-30T10:06:43.334Z,551.25
2018-04-30T10:07:43.608Z,466.88
2018-04-30T10:08:43.884Z,348.75
2018-04-30T10:09:44.217Z,405.00
2018-04-30T10:10:44.447Z,421.88
2018-04-30T10:11:44.680Z,354.38
2018-04-30T10:12:44.939Z,331.88
2018-04-30T10:13:45.173Z,354.38
2018-04-30T10:14:45.416Z,365.63
2018-04-30T10:15:45.653Z,382.50
2018-04-30T10:16:45.955Z,416.25
2018-04-30T10:17:46.185Z,421.88
2018-04-30T10:18:46.419Z,421.88
2018-04-30T10:19:46.651Z,478.13
2018-04-30T10:20:46.874Z,635.63
2018-04-30T10:21:47.125Z,793.13
2018-04-30T10:22:47.367Z,995.63
2018-04-30T10:23:47.681Z,1254.38
2018-04-30T10:24:47.848Z,1732.50
2018-04-30T10:25:48.109Z,1985.63
2018-04-30T10:26:48.327Z,1102.50
2018-04-30T10:27:48.575Z,1141.88
2018-04-30T10:28:48.818Z,1276.88
2018-04-30T10:29:49.071Z,1681.88
2018-04-30T10:30:49.307Z,1023.75
2018-04-30T10:31:49.553Z,1018.13
2018-04-30T10:32:49.804Z,1096.88
2018-04-30T10:33:50.050Z,1040.63
2018-04-30T10:34:50.292Z,1203.75
2018-04-30T10:35:50.537Z,1040.63
2018-04-30T10:36:50.791Z,1276.88
2018-04-30T10:37:51.067Z,1873.13
2018-04-30T10:38:51.281Z,1546.88
2018-04-30T10:39:51.536Z,1299.38
2018-04-30T10:40:51.778Z,1563.75
2018-04-30T10:41:52.023Z,1299.38
2018-04-30T10:42:52.272Z,1563.75
2018-04-30T10:43:52.517Z,2103.75
2018-04-30T10:44:52.766Z,3549.38
2018-04-30T10:45:53.024Z,2373.75
2018-04-30T10:46:53.260Z,1063.13
2018-04-30T10:47:53.506Z,2756.25
2018-04-30T10:48:53.754Z,523.13
2018-04-30T10:49:54.024Z,393.75
2018-04-30T10:50:54.244Z,331.88
2018-04-30T10:51:54.490Z,309.38
2018-04-30T10:52:54.721Z,281.25
2018-04-30T10:53:54.978Z,270.00
2018-04-30T10:54:55.205Z,275.63
2018-04-30T10:55:55.464Z,292.50
2018-04-30T10:56:55.698Z,320.63
2018-04-30T10:57:55.945Z,376.88
2018-04-30T10:58:56.193Z,444.38
2018-04-30T10:59:56.437Z,523.13
2018-04-30T11:00:56.684Z,669.38
2018-04-30T11:01:56.930Z,911.25
2018-04-30T11:02:57.178Z,2728.13
2018-04-30T11:03:57.411Z,849.38
2018-04-30T11:04:57.689Z,821.25
2018-04-30T11:05:57.938Z,894.38
2018-04-30T11:06:58.261Z,1158.75
2018-04-30T11:07:58.471Z,3757.50
2018-04-30T11:08:58.722Z,3740.63
2018-04-30T11:09:59.061Z,3543.75
2018-04-30T11:10:59.319Z,3493.13
2018-04-30T11:11:59.592Z,3645.00
2018-04-30T11:12:59.903Z,1181.25
2018-04-30T11:14:00.147Z,3673.13
2018-04-30T11:15:00.376Z,3369.38
2018-04-30T11:16:00.617Z,1018.13
2018-04-30T11:17:00.857Z,1434.38
2018-04-30T11:18:01.107Z,1029.38
2018-04-30T11:19:01.358Z,911.25
2018-04-30T11:20:01.606Z,1181.25
2018-04-30T11:21:01.855Z,2283.75
2018-04-30T11:22:02.117Z,1209.38
2018-04-30T11:23:02.357Z,1102.50
2018-04-30T11:24:02.599Z,1040.63
2018-04-30T11:25:02.853Z,3903.75
2018-04-30T11:26:03.098Z,776.25
2018-04-30T11:27:03.344Z,1158.75
2018-04-30T11:28:03.596Z,624.38
2018-04-30T11:29:03.829Z,748.13
2018-04-30T11:30:04.089Z,1113.75
2018-04-30T11:31:04.338Z,990.00
2018-04-30T11:32:04.586Z,2244.38
2018-04-30T11:33:04.836Z,1462.50
2018-04-30T11:34:05.149Z,900.00
2018-04-30T11:35:05.333Z,1096.88
2018-04-30T11:36:05.577Z,1305.00
2018-04-30T11:37:05.819Z,1175.63
2018-04-30T11:38:06.053Z,4308.75
2018-04-30T11:39:06.302Z,3380.63
2018-04-30T11:40:06.665Z,3954.38
2018-04-30T11:41:06.788Z,3847.50
2018-04-30T11:42:07.034Z,3780.00
2018-04-30T11:43:07.283Z,3796.88
2018-04-30T11:44:07.533Z,3802.50
2018-04-30T11:45:07.779Z,3695.63
2018-04-30T11:46:08.027Z,3324.38
2018-04-30T11:47:08.323Z,3706.88
2018-04-30T11:48:08.508Z,3718.13
2018-04-30T11:49:08.767Z,3774.38
2018-04-30T11:50:09.004Z,2497.50
2018-04-30T11:51:09.292Z,3909.38
2018-04-30T11:52:09.540Z,4128.75
2018-04-30T11:53:09.798Z,1170.00
2018-04-30T11:54:10.046Z,1074.38
2018-04-30T11:55:10.286Z,1051.88
2018-04-30T11:56:10.525Z,950.63
2018-04-30T11:57:10.781Z,1040.63
2018-04-30T11:58:11.031Z,1237.50
2018-04-30T11:59:11.279Z,4050.00
2018-04-30T12:00:11.529Z,3819.38
2018-04-30T12:01:11.784Z,3853.13
2018-04-30T12:02:12.032Z,3808.13
2018-04-30T12:03:12.278Z,1074.38
2018-04-30T12:04:12.528Z,3853.13
2018-04-30T12:05:12.775Z,3886.88
2018-04-30T12:06:13.025Z,1254.38
2018-04-30T12:07:13.272Z,3841.88
2018-04-30T12:08:13.524Z,1659.38
2018-04-30T12:09:13.772Z,708.75
2018-04-30T12:10:14.023Z,630.00
2018-04-30T12:11:14.279Z,601.88
2018-04-30T12:12:14.517Z,630.00
2018-04-30T12:13:14.768Z,680.63
2018-04-30T12:14:15.018Z,995.63
2018-04-30T12:15:15.267Z,793.13
2018-04-30T12:16:15.518Z,916.88
2018-04-30T12:17:15.767Z,3538.13
2018-04-30T12:18:16.018Z,3487.50
2018-04-30T12:19:16.268Z,3538.13
2018-04-30T12:20:16.519Z,1158.75
2018-04-30T12:21:16.765Z,2334.38
2018-04-30T12:22:17.084Z,1125.00
2018-04-30T12:23:17.265Z,776.25
2018-04-30T12:24:17.513Z,703.13
2018-04-30T12:25:17.762Z,770.63
2018-04-30T12:26:18.014Z,1096.88
2018-04-30T12:27:18.266Z,3701.25
2018-04-30T12:28:18.509Z,3718.13
2018-04-30T12:29:18.758Z,3718.13
2018-04-30T12:30:19.007Z,3706.88
2018-04-30T12:31:19.258Z,3780.00
2018-04-30T12:32:19.508Z,3735.00
2018-04-30T12:33:19.766Z,3667.50
2018-04-30T12:34:20.012Z,3853.13
2018-04-30T12:35:20.261Z,3048.75
2018-04-30T12:36:20.511Z,1749.38
2018-04-30T12:37:20.760Z,2520.00
2018-04-30T12:38:21.009Z,1366.88
2018-04-30T12:39:21.256Z,3200.63
2018-04-30T12:40:21.504Z,3712.50
2018-04-30T12:41:21.761Z,3701.25
2018-04-30T12:42:22.014Z,3633.75
2018-04-30T12:43:22.265Z,2919.38
2018-04-30T12:44:22.518Z,990.00
2018-04-30T12:45:22.751Z,1113.75
2018-04-30T12:46:23.056Z,1074.38